Time;durP1;ratioP1;P1;durP2;ratioP2;P2;SDS_P1;SDS_P2;PMS_P1;PMS_P2;Temp;Humidity;BMP_temperature;BMP_pressure;BME280_temperature;BME280_humidity;BME280_pressure;Samples;Min_cycle;Max_cycle;Signal;HPM_P1;HPM_P2
2022/05/12 00:00:43;;;;;;;;;;;;;;;21.53;nan;99402.03;4981524;28;19953;-87
2022/05/12 00:03:08;;;;;;;;;;;;;;;21.55;nan;99402.66;4980630;28;19956;-88
2022/05/12 00:05:34;;;;;;;;;;;;;;;21.59;nan;99401.31;4973459;28;20420;-87
2022/05/12 00:07:59;;;;;;;;;;;;;;;21.65;nan;99393.44;4972121;28;20160;-88
2022/05/12 00:10:26;;;;;;;;;;;;;;;21.72;nan;99395.44;4975307;28;19951;-87
2022/05/12 00:12:52;;;;;;;;;;;;;;;21.79;nan;99391.03;4977118;28;20044;-88
2022/05/12 00:15:21;;;;;;;;;;;;;;;21.82;nan;99394.22;4974735;28;19971;-88
2022/05/12 00:17:46;;;;;;;;;;;;;;;21.88;nan;99398.03;4981048;28;20213;-87
2022/05/12 00:20:13;;;;;;;;;;;;;;;21.91;nan;99402.19;4974205;28;19947;-88
2022/05/12 00:22:38;;;;;;;;;;;;;;;21.94;nan;99396.47;4973835;28;20314;-87
2022/05/12 00:25:14;;;;;;;;;;;;;;;21.96;nan;99399.81;4972484;28;19941;-86
2022/05/12 00:27:40;;;;;;;;;;;;;;;21.98;nan;99401.31;4975693;28;19975;-84
2022/05/12 00:30:09;;;;;;;;;;;;;;;21.99;nan;99397.63;4976037;28;19949;-86
2022/05/12 00:32:35;;;;;;;;;;;;;;;22.01;nan;99395.59;4977319;28;19964;-87
2022/05/12 00:35:00;;;;;;;;;;;;;;;22.02;nan;99402.59;4982404;28;19996;-86
2022/05/12 00:37:26;;;;;;;;;;;;;;;22.04;nan;99405.13;4982462;28;19969;-86
2022/05/12 00:39:51;;;;;;;;;;;;;;;22.03;nan;99414.97;4990523;28;20019;-87
2022/05/12 00:42:16;;;;;;;;;;;;;;;22.04;nan;99407.78;4993817;28;19980;-87
2022/05/12 00:44:41;;;;;;;;;;;;;;;22.04;nan;99408.63;4994973;28;19977;-86
2022/05/12 00:47:07;;;;;;;;;;;;;;;22.04;nan;99415.81;5003118;28;19976;-86
2022/05/12 00:49:37;;;;;;;;;;;;;;;22.05;nan;99407.59;4981078;28;19977;-87
2022/05/12 00:52:09;;;;;;;;;;;;;;;22.06;nan;99405.75;4976974;28;19969;-87
2022/05/12 00:54:34;;;;;;;;;;;;;;;22.07;nan;99410.94;4978609;28;19996;-86
2022/05/12 00:57:00;;;;;;;;;;;;;;;22.08;nan;99417.94;4979504;28;20056;-87
2022/05/12 00:59:28;;;;;;;;;;;;;;;22.07;nan;99423.47;4984039;28;20358;-87
2022/05/12 01:01:55;;;;;;;;;;;;;;;22.05;nan;99420.16;4995984;28;19989;-88
2022/05/12 01:04:24;;;;;;;;;;;;;;;22.04;nan;99418.50;4996048;28;19981;-85
2022/05/12 01:06:51;;;;;;;;;;;;;;;22.02;nan;99428.53;4979197;28;19983;-87
2022/05/12 01:09:16;;;;;;;;;;;;;;;22.02;nan;99428.53;4974850;28;20020;-86
2022/05/12 01:11:42;;;;;;;;;;;;;;;22.01;nan;99430.38;4972921;28;20453;-86
2022/05/12 01:14:08;;;;;;;;;;;;;;;21.98;nan;99427.19;4971260;28;20032;-86
2022/05/12 01:16:54;;;;;;;;;;;;;;;21.95;nan;99432.91;4971365;28;20099;-87
2022/05/12 01:19:39;;;;;;;;;;;;;;;21.93;nan;99434.91;4967996;28;20063;-86
2022/05/12 01:22:06;;;;;;;;;;;;;;;21.88;nan;99441.63;4973894;28;19979;-86
2022/05/12 01:24:50;;;;;;;;;;;;;;;21.86;nan;99438.28;4968450;28;20022;-86
2022/05/12 01:27:22;;;;;;;;;;;;;;;21.84;nan;99447.50;4970053;28;20435;-86
2022/05/12 01:29:51;;;;;;;;;;;;;;;21.81;nan;99443.31;4975407;28;19980;-86
2022/05/12 01:32:21;;;;;;;;;;;;;;;21.79;nan;99441.81;4972289;28;20007;-87
2022/05/12 01:34:46;;;;;;;;;;;;;;;21.75;nan;99446.69;4966797;28;20012;-88
2022/05/12 01:37:12;;;;;;;;;;;;;;;21.72;nan;99449.72;4971437;28;20377;-85
2022/05/12 01:39:40;;;;;;;;;;;;;;;21.70;nan;99450.91;4968023;28;19969;-86
2022/05/12 01:42:07;;;;;;;;;;;;;;;21.67;nan;99457.44;4973923;28;19979;-86
2022/05/12 01:44:33;;;;;;;;;;;;;;;21.63;nan;99462.28;4970051;28;20075;-85
2022/05/12 01:46:58;;;;;;;;;;;;;;;21.60;nan;99462.66;4976345;28;20620;-86
2022/05/12 01:49:24;;;;;;;;;;;;;;;21.58;nan;99470.00;4972641;28;19977;-86
2022/05/12 01:51:53;;;;;;;;;;;;;;;21.56;nan;99473.84;4975396;28;19978;-87
2022/05/12 01:54:19;;;;;;;;;;;;;;;21.54;nan;99465.16;4966883;28;19981;-86
2022/05/12 01:56:44;;;;;;;;;;;;;;;21.49;nan;99471.00;4971247;28;20019;-86
2022/05/12 01:59:09;;;;;;;;;;;;;;;21.48;nan;99481.88;4972184;28;19976;-86
2022/05/12 02:01:38;;;;;;;;;;;;;;;21.45;nan;99485.72;4969856;28;19965;-86
2022/05/12 02:04:05;;;;;;;;;;;;;;;21.41;nan;99490.59;4973219;28;20444;-87
2022/05/12 02:06:31;;;;;;;;;;;;;;;21.37;nan;99496.41;4976022;28;19968;-87
2022/05/12 02:08:57;;;;;;;;;;;;;;;21.33;nan;99500.41;4975216;28;19969;-89
2022/05/12 02:11:23;;;;;;;;;;;;;;;21.30;nan;99495.41;4994715;28;20039;-87
2022/05/12 02:13:48;;;;;;;;;;;;;;;21.26;nan;99505.59;4976612;28;19968;-88
2022/05/12 02:16:13;;;;;;;;;;;;;;;21.21;nan;99503.44;4976034;28;19965;-87
2022/05/12 02:18:39;;;;;;;;;;;;;;;21.19;nan;99507.28;4977644;28;20212;-88
2022/05/12 02:21:04;;;;;;;;;;;;;;;21.14;nan;99510.47;4983236;28;19972;-87
2022/05/12 02:23:30;;;;;;;;;;;;;;;21.10;nan;99508.28;4979974;28;19973;-86
2022/05/12 02:25:55;;;;;;;;;;;;;;;21.06;nan;99517.63;4978392;28;20402;-87
2022/05/12 02:28:20;;;;;;;;;;;;;;;20.99;nan;99512.97;4975238;28;19972;-87
2022/05/12 02:30:45;;;;;;;;;;;;;;;20.96;nan;99515.13;4985055;28;19999;-88
2022/05/12 02:33:11;;;;;;;;;;;;;;;20.90;nan;99521.13;4982865;28;20342;-86
2022/05/12 02:35:37;;;;;;;;;;;;;;;20.85;nan;99516.31;4983608;28;20087;-87
2022/05/12 02:38:03;;;;;;;;;;;;;;;20.82;nan;99515.78;4984710;28;20018;-88
2022/05/12 02:40:29;;;;;;;;;;;;;;;20.76;nan;99517.28;4988363;28;19973;-87
2022/05/12 02:42:55;;;;;;;;;;;;;;;20.72;nan;99521.28;4977627;28;19972;-87
2022/05/12 02:45:20;;;;;;;;;;;;;;;20.66;nan;99527.31;4974393;28;19980;-87
2022/05/12 02:47:46;;;;;;;;;;;;;;;20.62;nan;99536.63;4978262;28;19965;-88
2022/05/12 02:50:12;;;;;;;;;;;;;;;20.56;nan;99530.09;4992091;28;20769;-87
2022/05/12 02:52:38;;;;;;;;;;;;;;;20.51;nan;99530.56;4976552;28;19969;-88
2022/05/12 02:55:03;;;;;;;;;;;;;;;20.47;nan;99534.56;4973458;28;19985;-87
2022/05/12 02:57:29;;;;;;;;;;;;;;;20.44;nan;99544.72;4975873;28;20071;-87
2022/05/12 02:59:54;;;;;;;;;;;;;;;20.40;nan;99546.88;4976542;28;19974;-86
2022/05/12 03:02:19;;;;;;;;;;;;;;;20.36;nan;99552.69;4972798;28;20067;-87
2022/05/12 03:04:45;;;;;;;;;;;;;;;20.33;nan;99553.84;4973657;28;20386;-87
2022/05/12 03:07:10;;;;;;;;;;;;;;;20.30;nan;99559.50;4975409;28;20062;-86
2022/05/12 03:09:38;;;;;;;;;;;;;;;20.27;nan;99554.50;4972573;28;19968;-86
2022/05/12 03:12:04;;;;;;;;;;;;;;;20.26;nan;99552.84;4974336;28;19971;-86
2022/05/12 03:14:29;;;;;;;;;;;;;;;20.23;nan;99550.50;4980188;28;20204;-86
2022/05/12 03:16:55;;;;;;;;;;;;;;;20.21;nan;99563.16;4972204;28;20007;-87
2022/05/12 03:19:22;;;;;;;;;;;;;;;20.20;nan;99561.47;4974681;28;20733;-88
2022/05/12 03:21:47;;;;;;;;;;;;;;;20.17;nan;99559.97;4972835;28;20450;-86
2022/05/12 03:24:17;;;;;;;;;;;;;;;20.15;nan;99561.13;4977139;28;20317;-87
2022/05/12 03:26:42;;;;;;;;;;;;;;;20.11;nan;99568.59;4971348;28;19969;-87
2022/05/12 03:29:07;;;;;;;;;;;;;;;20.08;nan;99566.25;4973511;28;20518;-87
2022/05/12 03:31:33;;;;;;;;;;;;;;;20.05;nan;99578.06;4972482;28;20450;-87
2022/05/12 03:34:00;;;;;;;;;;;;;;;20.03;nan;99573.88;4960029;28;19992;-87
2022/05/12 03:36:25;;;;;;;;;;;;;;;19.97;nan;99578.03;4971391;28;20526;-88
2022/05/12 03:38:51;;;;;;;;;;;;;;;19.93;nan;99590.03;4978034;28;19973;-87
2022/05/12 03:41:16;;;;;;;;;;;;;;;19.88;nan;99582.50;4970873;28;20399;-88
2022/05/12 03:46:26;;;;;;;;;;;;;;;19.78;nan;99586.25;4964308;28;20003;-86
2022/05/12 03:48:51;;;;;;;;;;;;;;;19.72;nan;99589.56;4975000;28;20334;-87
2022/05/12 03:51:17;;;;;;;;;;;;;;;19.65;nan;99592.81;4970282;28;20426;-87
2022/05/12 03:53:42;;;;;;;;;;;;;;;19.59;nan;99590.78;4977691;28;19983;-87
2022/05/12 03:56:08;;;;;;;;;;;;;;;19.56;nan;99599.06;4977828;28;21016;-87
2022/05/12 03:58:33;;;;;;;;;;;;;;;19.50;nan;99599.72;4978971;28;19980;-87
2022/05/12 04:00:59;;;;;;;;;;;;;;;19.46;nan;99606.31;4976902;28;19968;-87
2022/05/12 04:03:25;;;;;;;;;;;;;;;19.43;nan;99606.63;4971809;28;20040;-87
2022/05/12 04:05:55;;;;;;;;;;;;;;;19.41;nan;99611.28;4973014;28;19965;-87
2022/05/12 04:08:21;;;;;;;;;;;;;;;19.41;nan;99621.94;4978361;28;20067;-87
2022/05/12 04:10:48;;;;;;;;;;;;;;;19.40;nan;99620.25;4977188;28;19968;-87
2022/05/12 04:13:15;;;;;;;;;;;;;;;19.40;nan;99617.59;4974213;28;20453;-86
2022/05/12 04:15:40;;;;;;;;;;;;;;;19.40;nan;99621.09;4974180;28;19992;-87
2022/05/12 04:18:05;;;;;;;;;;;;;;;19.40;nan;99629.09;4974756;28;19976;-87
2022/05/12 04:20:32;;;;;;;;;;;;;;;19.39;nan;99635.41;4971685;28;20019;-87
2022/05/12 04:22:57;;;;;;;;;;;;;;;19.40;nan;99630.91;4987467;28;20006;-86
2022/05/12 04:25:23;;;;;;;;;;;;;;;19.42;nan;99636.94;4974300;28;20006;-87
2022/05/12 04:27:49;;;;;;;;;;;;;;;19.44;nan;99637.59;4968729;28;20612;-86
2022/05/12 04:30:15;;;;;;;;;;;;;;;19.44;nan;99642.94;4969683;28;19937;-88
2022/05/12 04:32:41;;;;;;;;;;;;;;;19.43;nan;99647.41;4982463;28;20052;-88
2022/05/12 04:35:11;;;;;;;;;;;;;;;19.44;nan;99641.13;4999399;28;20013;-88
2022/05/12 04:37:37;;;;;;;;;;;;;;;19.49;nan;99647.78;4977060;28;19939;-89
2022/05/12 04:40:07;;;;;;;;;;;;;;;19.52;nan;99652.81;4976817;28;20038;-90
2022/05/12 04:42:32;;;;;;;;;;;;;;;19.54;nan;99654.34;4974370;28;19953;-89
2022/05/12 04:44:58;;;;;;;;;;;;;;;19.56;nan;99657.69;4976006;28;19936;-89
2022/05/12 04:47:23;;;;;;;;;;;;;;;19.54;nan;99659.66;4975395;28;19935;-89
2022/05/12 04:49:49;;;;;;;;;;;;;;;19.54;nan;99667.66;4974934;28;20234;-88
2022/05/12 04:52:14;;;;;;;;;;;;;;;19.57;nan;99664.69;4990235;28;19948;-88
2022/05/12 04:54:40;;;;;;;;;;;;;;;19.67;nan;99662.81;4974728;28;20006;-88
2022/05/12 04:57:05;;;;;;;;;;;;;;;19.85;nan;99662.78;4973459;28;20225;-89
2022/05/12 04:59:32;;;;;;;;;;;;;;;20.08;nan;99668.41;4977188;28;19975;-88
2022/05/12 05:01:57;;;;;;;;;;;;;;;20.16;nan;99672.97;4978854;28;20007;-89
2022/05/12 05:04:23;;;;;;;;;;;;;;;20.13;nan;99670.63;4975300;28;19953;-89
2022/05/12 05:06:48;;;;;;;;;;;;;;;20.06;nan;99672.22;4975811;28;20036;-89
2022/05/12 05:09:13;;;;;;;;;;;;;;;20.01;nan;99687.84;4976326;28;19989;-87
2022/05/12 05:11:39;;;;;;;;;;;;;;;19.95;nan;99686.66;4978838;28;20036;-88
2022/05/12 05:14:04;;;;;;;;;;;;;;;19.91;nan;99682.66;4977578;28;19950;-89
2022/05/12 05:16:29;;;;;;;;;;;;;;;19.84;nan;99697.56;4991578;28;20021;-89
2022/05/12 05:18:55;;;;;;;;;;;;;;;19.80;nan;99696.22;4992812;28;19946;-87
2022/05/12 05:21:20;;;;;;;;;;;;;;;19.79;nan;99700.69;4986342;28;20579;-88
2022/05/12 05:23:46;;;;;;;;;;;;;;;19.83;nan;99703.91;5006211;28;19952;-90
2022/05/12 05:26:11;;;;;;;;;;;;;;;19.85;nan;99705.44;4979458;28;19985;-89
2022/05/12 05:28:37;;;;;;;;;;;;;;;19.90;nan;99704.94;4986069;28;19956;-88
2022/05/12 05:31:04;;;;;;;;;;;;;;;19.94;nan;99714.31;4976966;28;19960;-88
2022/05/12 05:33:29;;;;;;;;;;;;;;;19.96;nan;99717.69;4975109;28;20106;-89
2022/05/12 05:35:55;;;;;;;;;;;;;;;19.95;nan;99723.16;4976025;28;20003;-88
2022/05/12 05:38:20;;;;;;;;;;;;;;;19.94;nan;99722.31;4972130;28;19940;-89
2022/05/12 05:40:48;;;;;;;;;;;;;;;19.93;nan;99727.78;4973879;28;19939;-89
2022/05/12 05:43:13;;;;;;;;;;;;;;;19.91;nan;99735.97;4975912;28;19990;-89
2022/05/12 05:45:39;;;;;;;;;;;;;;;19.93;nan;99739.31;4975895;28;19970;-89
2022/05/12 05:48:06;;;;;;;;;;;;;;;19.96;nan;99740.84;4974559;28;20029;-90
2022/05/12 05:53:23;;;;;;;;;;;;;;;19.97;nan;99745.16;4991440;28;19939;-90
2022/05/12 05:53:24;;;;;;;;;;;;;;;19.99;nan;99748.53;4973269;28;19939;-88
2022/05/12 05:55:49;;;;;;;;;;;;;;;20.01;nan;99757.19;4980447;28;19954;-89
2022/05/12 05:58:15;;;;;;;;;;;;;;;20.03;nan;99755.22;4975115;28;20340;-86
2022/05/12 06:00:43;;;;;;;;;;;;;;;20.04;nan;99757.72;4974671;28;20006;-87
2022/05/12 06:03:09;;;;;;;;;;;;;;;20.05;nan;99754.06;4975344;28;19951;-88
2022/05/12 06:05:35;;;;;;;;;;;;;;;20.05;nan;99759.38;4973647;28;19970;-85
2022/05/12 06:08:00;;;;;;;;;;;;;;;20.02;nan;99762.38;4974543;28;19979;-85
2022/05/12 06:10:26;;;;;;;;;;;;;;;20.06;nan;99781.56;4972400;28;20286;-85
2022/05/12 06:12:59;;;;;;;;;;;;;;;20.13;nan;99779.13;4976576;28;19978;-86
2022/05/12 06:15:26;;;;;;;;;;;;;;;20.18;nan;99779.50;4972810;28;19966;-85
2022/05/12 06:17:52;;;;;;;;;;;;;;;20.26;nan;99779.56;4974009;28;20422;-85
2022/05/12 06:20:21;;;;;;;;;;;;;;;20.37;nan;99762.47;4971773;28;20053;-85
2022/05/12 06:22:49;;;;;;;;;;;;;;;20.47;nan;99774.69;4975123;28;20227;-85
2022/05/12 06:25:16;;;;;;;;;;;;;;;20.81;nan;99767.75;4981616;28;20379;-85
2022/05/12 06:27:42;;;;;;;;;;;;;;;21.40;nan;99771.31;4981054;28;19957;-85
2022/05/12 06:30:18;;;;;;;;;;;;;;;22.01;nan;99763.88;4982366;28;19983;-85
2022/05/12 06:32:43;;;;;;;;;;;;;;;22.56;nan;99755.13;4987313;28;20298;-86
2022/05/12 06:35:10;;;;;;;;;;;;;;;23.19;nan;99761.44;4996749;28;19974;-85
2022/05/12 06:37:35;;;;;;;;;;;;;;;23.68;nan;99762.97;4994456;28;19979;-86
2022/05/12 06:40:01;;;;;;;;;;;;;;;24.14;nan;99762.97;4994035;28;19983;-86
2022/05/12 06:42:26;;;;;;;;;;;;;;;24.29;nan;99766.53;4992949;28;19935;-85
2022/05/12 06:44:54;;;;;;;;;;;;;;;24.21;nan;99767.44;4978205;28;19940;-85
2022/05/12 06:47:19;;;;;;;;;;;;;;;23.93;nan;99769.03;4979605;28;19992;-86
2022/05/12 06:49:48;;;;;;;;;;;;;;;23.68;nan;99776.38;4976781;28;19990;-85
2022/05/12 06:52:14;;;;;;;;;;;;;;;23.47;nan;99782.41;4975378;28;19949;-86
2022/05/12 06:54:40;;;;;;;;;;;;;;;23.22;nan;99781.69;4984523;28;19997;-85
2022/05/12 06:57:09;;;;;;;;;;;;;;;23.04;nan;99787.31;4993463;28;19943;-85
2022/05/12 06:59:39;;;;;;;;;;;;;;;23.00;nan;99778.75;4989348;28;20009;-87
2022/05/12 07:02:05;;;;;;;;;;;;;;;22.99;nan;99785.13;4980170;28;19971;-88
2022/05/12 07:04:31;;;;;;;;;;;;;;;22.96;nan;99786.31;4973265;28;19981;-87
2022/05/12 07:06:57;;;;;;;;;;;;;;;23.13;nan;99784.41;4974109;28;19973;-87
2022/05/12 07:09:22;;;;;;;;;;;;;;;23.03;nan;99785.63;4970733;28;20424;-87
2022/05/12 07:11:48;;;;;;;;;;;;;;;22.82;nan;99788.84;4972768;28;19963;-86
2022/05/12 07:14:14;;;;;;;;;;;;;;;22.69;nan;99784.03;4972550;28;20097;-87
2022/05/12 07:16:41;;;;;;;;;;;;;;;22.68;nan;99783.22;4968360;28;20008;-87
2022/05/12 07:19:06;;;;;;;;;;;;;;;23.03;nan;99790.97;4969031;28;19953;-87
2022/05/12 07:27:02;;;;;;;;;;;;;;;24.93;nan;99774.91;4971172;28;19960;-87
2022/05/12 07:29:28;;;;;;;;;;;;;;;25.44;nan;99773.28;4971313;28;19935;-87
2022/05/12 07:31:53;;;;;;;;;;;;;;;25.77;nan;99774.47;4967990;28;19936;-87
2022/05/12 07:34:19;;;;;;;;;;;;;;;25.95;nan;99775.88;4971396;28;20010;-87
2022/05/12 07:36:46;;;;;;;;;;;;;;;26.08;nan;99777.88;4973541;28;19982;-87
2022/05/12 07:39:12;;;;;;;;;;;;;;;26.34;nan;99782.63;4973175;28;20197;-87
2022/05/12 07:41:41;;;;;;;;;;;;;;;26.45;nan;99784.78;4972278;28;19958;-88
2022/05/12 07:44:06;;;;;;;;;;;;;;;26.55;nan;99790.69;4972978;28;19988;-89
2022/05/12 07:46:31;;;;;;;;;;;;;;;26.36;nan;99788.66;4973191;28;19961;-86
2022/05/12 07:48:57;;;;;;;;;;;;;;;26.22;nan;99788.56;4971650;28;19959;-86
2022/05/12 07:51:23;;;;;;;;;;;;;;;26.35;nan;99790.50;4974191;28;20393;-88
2022/05/12 07:53:49;;;;;;;;;;;;;;;26.46;nan;99800.75;4971423;28;19967;-88
2022/05/12 07:56:18;;;;;;;;;;;;;;;26.65;nan;99793.03;4986401;28;19988;-88
2022/05/12 07:58:46;;;;;;;;;;;;;;;26.83;nan;99790.66;4970497;28;20011;-85
2022/05/12 08:01:17;;;;;;;;;;;;;;;26.61;nan;99789.91;4973233;28;19967;-85
2022/05/12 08:03:44;;;;;;;;;;;;;;;26.56;nan;99778.88;4973064;28;19980;-86
2022/05/12 08:06:09;;;;;;;;;;;;;;;26.66;nan;99782.06;4980458;28;19973;-84
2022/05/12 08:08:35;;;;;;;;;;;;;;;26.85;nan;99788.59;4972527;28;19968;-86
2022/05/12 08:11:02;;;;;;;;;;;;;;;27.09;nan;99791.84;4973335;28;19987;-85
2022/05/12 08:13:27;;;;;;;;;;;;;;;27.20;nan;99785.06;4970002;28;19968;-85
2022/05/12 08:15:53;;;;;;;;;;;;;;;27.20;nan;99788.59;4971438;28;20498;-85
2022/05/12 08:18:21;;;;;;;;;;;;;;;26.97;nan;99788.84;4971666;28;19971;-85
2022/05/12 08:20:46;;;;;;;;;;;;;;;26.74;nan;99783.75;4971322;28;20024;-84
2022/05/12 08:23:12;;;;;;;;;;;;;;;26.43;nan;99787.66;4971851;28;20622;-84
2022/05/12 08:25:41;;;;;;;;;;;;;;;26.54;nan;99780.94;4972193;28;20373;-86
2022/05/12 08:28:06;;;;;;;;;;;;;;;26.57;nan;99793.19;4970335;28;19973;-89
2022/05/12 08:30:35;;;;;;;;;;;;;;;26.75;nan;99795.38;4972038;28;20004;-87
2022/05/12 08:33:00;;;;;;;;;;;;;;;26.86;nan;99798.34;4971311;28;19999;-87
2022/05/12 08:35:26;;;;;;;;;;;;;;;26.73;nan;99802.81;4990565;28;20106;-87
2022/05/12 08:37:52;;;;;;;;;;;;;;;26.79;nan;99794.78;4974821;28;19980;-89
2022/05/12 08:40:36;;;;;;;;;;;;;;;26.93;nan;99788.44;4975295;28;19969;-87
2022/05/12 08:43:07;;;;;;;;;;;;;;;27.11;nan;99787.91;4978929;28;19973;-85
2022/05/12 08:45:33;;;;;;;;;;;;;;;26.98;nan;99793.22;4980839;28;20216;-88
2022/05/12 08:47:59;;;;;;;;;;;;;;;26.42;nan;99794.09;4985403;28;19983;-88
2022/05/12 08:50:27;;;;;;;;;;;;;;;25.94;nan;99795.75;4629394;28;10000630;-87
2022/05/12 08:52:59;;;;;;;;;;;;;;;25.57;nan;99808.38;4971422;28;19978;-89
2022/05/12 08:55:32;;;;;;;;;;;;;;;25.20;nan;99804.88;4972857;28;20035;-86
2022/05/12 08:58:11;;;;;;;;;;;;;;;24.98;nan;99805.75;4989523;28;20056;-87
2022/05/12 09:00:40;;;;;;;;;;;;;;;24.76;nan;99804.84;4972983;28;20216;-84
2022/05/12 09:03:26;;;;;;;;;;;;;;;24.61;nan;99797.63;4972531;28;19991;-85
2022/05/12 09:06:05;;;;;;;;;;;;;;;24.42;nan;99807.00;4973312;28;19957;-86
2022/05/12 09:08:30;;;;;;;;;;;;;;;24.38;nan;99808.38;4969259;28;20061;-86
2022/05/12 09:11:01;;;;;;;;;;;;;;;24.42;nan;99798.94;4972207;28;20721;-86
2022/05/12 09:13:32;;;;;;;;;;;;;;;24.63;nan;99802.81;4972815;28;19946;-85
2022/05/12 09:16:10;;;;;;;;;;;;;;;24.89;nan;99797.78;4972023;28;19957;-87
2022/05/12 09:18:36;;;;;;;;;;;;;;;25.36;nan;99807.34;4988936;28;20011;-85
2022/05/12 09:21:04;;;;;;;;;;;;;;;25.79;nan;99793.94;4969074;28;19952;-85
2022/05/12 09:23:29;;;;;;;;;;;;;;;26.03;nan;99787.38;4988549;28;20010;-86
2022/05/12 09:25:55;;;;;;;;;;;;;;;26.22;nan;99785.88;4972467;28;20050;-86
2022/05/12 09:28:39;;;;;;;;;;;;;;;26.39;nan;99783.72;4970094;28;20688;-84
2022/05/12 09:31:17;;;;;;;;;;;;;;;26.42;nan;99779.78;4974045;28;19973;-85
2022/05/12 09:33:54;;;;;;;;;;;;;;;26.56;nan;99778.06;4971418;28;20485;-86
2022/05/12 09:36:22;;;;;;;;;;;;;;;26.69;nan;99776.28;4970197;28;20018;-86
2022/05/12 09:38:48;;;;;;;;;;;;;;;26.81;nan;99763.06;4969391;28;19980;-86
2022/05/12 09:41:15;;;;;;;;;;;;;;;26.88;nan;99761.25;4972521;28;20418;-87
2022/05/12 09:43:41;;;;;;;;;;;;;;;26.97;nan;99761.91;4971422;28;19972;-87
2022/05/12 09:46:29;;;;;;;;;;;;;;;27.04;nan;99757.38;4966780;28;19968;-86
2022/05/12 09:48:54;;;;;;;;;;;;;;;27.15;nan;99750.56;4970442;28;20166;-85
2022/05/12 09:51:26;;;;;;;;;;;;;;;27.26;nan;99757.28;4968702;28;19968;-86
2022/05/12 09:53:53;;;;;;;;;;;;;;;27.44;nan;99751.31;4967086;28;20022;-86
2022/05/12 09:56:32;;;;;;;;;;;;;;;27.49;nan;99744.28;4968829;28;20469;-86
2022/05/12 09:59:02;;;;;;;;;;;;;;;27.60;nan;99737.44;4968342;28;20771;-87
2022/05/12 10:01:30;;;;;;;;;;;;;;;27.63;nan;99728.09;4972054;28;20364;-86
2022/05/12 10:10:13;;;;;;;;;;;;;;;27.72;nan;99743.88;4989708;28;20007;-88
2022/05/12 10:12:56;;;;;;;;;;;;;;;27.64;nan;99737.84;4970248;28;20012;-86
2022/05/12 10:15:30;;;;;;;;;;;;;;;27.75;nan;99734.53;4966767;28;20480;-87
2022/05/12 10:18:02;;;;;;;;;;;;;;;27.92;nan;99733.16;4968569;28;20537;-87
2022/05/12 10:20:32;;;;;;;;;;;;;;;28.03;nan;99729.00;4966172;28;19976;-86
2022/05/12 10:23:16;;;;;;;;;;;;;;;28.01;nan;99731.88;4989048;28;19973;-86
2022/05/12 10:26:00;;;;;;;;;;;;;;;27.91;nan;99711.75;4971920;28;19969;-85
2022/05/12 10:28:44;;;;;;;;;;;;;;;27.72;nan;99716.88;4970192;28;20070;-87
2022/05/12 10:31:36;;;;;;;;;;;;;;;27.68;nan;99717.50;4973243;28;20099;-86
2022/05/12 10:34:20;;;;;;;;;;;;;;;27.53;nan;99713.13;4971712;28;19995;-86
2022/05/12 10:36:45;;;;;;;;;;;;;;;27.51;nan;99706.28;4976034;28;19972;-86
2022/05/12 10:39:25;;;;;;;;;;;;;;;27.74;nan;99719.41;4970583;28;20755;-85
2022/05/12 10:42:05;;;;;;;;;;;;;;;27.92;nan;99718.78;4971548;28;20682;-86
2022/05/12 10:44:41;;;;;;;;;;;;;;;28.02;nan;99711.94;4972769;28;19976;-86
2022/05/12 10:47:26;;;;;;;;;;;;;;;28.09;nan;99708.41;4976009;28;20437;-85
2022/05/12 10:50:01;;;;;;;;;;;;;;;28.26;nan;99706.94;4969025;28;20006;-86
2022/05/12 10:52:45;;;;;;;;;;;;;;;28.31;nan;99698.22;4975436;28;19968;-87
2022/05/12 10:55:32;;;;;;;;;;;;;;;28.18;nan;99699.06;4970256;28;19991;-87
2022/05/12 10:58:00;;;;;;;;;;;;;;;28.00;nan;99692.44;4975261;28;20342;-87
2022/05/12 11:01:05;;;;;;;;;;;;;;;27.80;nan;99686.19;4970660;28;20575;-87
2022/05/12 11:03:36;;;;;;;;;;;;;;;27.82;nan;99686.00;4971182;28;19996;-86
2022/05/12 11:06:03;;;;;;;;;;;;;;;27.76;nan;99687.59;4967147;28;19965;-86
2022/05/12 11:08:52;;;;;;;;;;;;;;;27.68;nan;99680.56;4980304;28;20043;-86
2022/05/12 11:11:22;;;;;;;;;;;;;;;27.72;nan;99680.97;4970697;28;20015;-86
2022/05/12 11:13:50;;;;;;;;;;;;;;;27.74;nan;99671.63;4967581;28;19973;-86
2022/05/12 11:16:18;;;;;;;;;;;;;;;27.77;nan;99671.22;4972463;28;20000;-86
2022/05/12 11:18:53;;;;;;;;;;;;;;;27.61;nan;99674.34;4976323;28;20027;-87
2022/05/12 11:21:20;;;;;;;;;;;;;;;27.52;nan;99679.13;4984924;28;20074;-86
2022/05/12 11:24:04;;;;;;;;;;;;;;;27.49;nan;99668.72;4967796;28;20482;-86
2022/05/12 11:26:42;;;;;;;;;;;;;;;27.53;nan;99680.75;4971351;28;20040;-86
2022/05/12 11:32:09;;;;;;;;;;;;;;;27.64;nan;99673.91;4976326;28;20050;-86
2022/05/12 11:34:35;;;;;;;;;;;;;;;27.62;nan;99667.06;4972236;28;20100;-87
2022/05/12 11:37:20;;;;;;;;;;;;;;;27.45;nan;99662.06;4974147;28;20474;-85
2022/05/12 11:39:54;;;;;;;;;;;;;;;27.35;nan;99667.88;4976397;28;20191;-86
2022/05/12 11:42:25;;;;;;;;;;;;;;;27.29;nan;99666.00;4971063;28;19975;-86
2022/05/12 11:45:08;;;;;;;;;;;;;;;27.24;nan;99660.38;4974814;28;20028;-86
2022/05/12 11:47:34;;;;;;;;;;;;;;;27.14;nan;99660.75;4972761;28;19972;-87
2022/05/12 11:50:05;;;;;;;;;;;;;;;27.07;nan;99659.91;4971085;28;19973;-85
2022/05/12 11:52:34;;;;;;;;;;;;;;;27.04;nan;99659.50;4975707;28;20003;-86
2022/05/12 11:55:03;;;;;;;;;;;;;;;27.10;nan;99646.00;4969855;28;19995;-86
2022/05/12 11:57:41;;;;;;;;;;;;;;;27.18;nan;99645.03;4974053;28;19976;-86
2022/05/12 12:00:26;;;;;;;;;;;;;;;27.21;nan;99658.09;4973631;28;20040;-85
2022/05/12 12:02:52;;;;;;;;;;;;;;;27.12;nan;99653.91;4984615;28;19984;-86
2022/05/12 12:05:26;;;;;;;;;;;;;;;27.09;nan;99654.31;4972495;28;20311;-86
2022/05/12 12:07:53;;;;;;;;;;;;;;;27.13;nan;99648.28;4973987;28;20386;-86
2022/05/12 12:10:24;;;;;;;;;;;;;;;27.27;nan;99637.56;4969827;28;20039;-86
2022/05/12 12:12:49;;;;;;;;;;;;;;;27.33;nan;99639.47;4977679;28;19966;-87
2022/05/12 12:15:24;;;;;;;;;;;;;;;27.42;nan;99630.13;4977985;28;20088;-87
2022/05/12 12:17:50;;;;;;;;;;;;;;;27.47;nan;99633.03;4980339;28;19968;-86
2022/05/12 12:20:21;;;;;;;;;;;;;;;27.59;nan;99636.75;4978863;28;20063;-86
2022/05/12 12:22:49;;;;;;;;;;;;;;;27.60;nan;99637.59;4982573;28;20013;-86
2022/05/12 12:25:18;;;;;;;;;;;;;;;27.62;nan;99629.28;4992074;28;20027;-85
2022/05/12 12:28:04;;;;;;;;;;;;;;;27.66;nan;99625.16;4992140;28;19973;-85
2022/05/12 12:30:29;;;;;;;;;;;;;;;27.63;nan;99626.41;4993588;28;20023;-85
2022/05/12 12:33:10;;;;;;;;;;;;;;;27.73;nan;99628.66;4972108;28;20411;-86
2022/05/12 12:35:51;;;;;;;;;;;;;;;27.81;nan;99623.06;4974604;28;20035;-86
2022/05/12 12:38:35;;;;;;;;;;;;;;;27.86;nan;99617.88;4635557;28;9999820;-85
2022/05/12 12:41:01;;;;;;;;;;;;;;;27.87;nan;99622.25;4980421;28;19971;-84
2022/05/12 12:43:31;;;;;;;;;;;;;;;27.86;nan;99620.56;4980620;28;19953;-86
2022/05/12 12:45:56;;;;;;;;;;;;;;;27.88;nan;99621.19;4990742;28;19964;-86
2022/05/12 12:48:27;;;;;;;;;;;;;;;27.88;nan;99621.19;4993648;28;19991;-86
2022/05/12 12:50:53;;;;;;;;;;;;;;;27.93;nan;99621.41;4977859;28;19965;-86
2022/05/12 12:56:30;;;;;;;;;;;;;;;27.88;nan;99610.41;4972084;28;20598;-87
2022/05/12 12:59:00;;;;;;;;;;;;;;;27.89;nan;99609.34;4969121;28;20050;-86
2022/05/12 13:01:35;;;;;;;;;;;;;;;27.97;nan;99606.44;4974197;28;19999;-88
2022/05/12 13:04:01;;;;;;;;;;;;;;;28.12;nan;99600.81;4972230;28;19999;-90
2022/05/12 13:06:29;;;;;;;;;;;;;;;28.23;nan;99600.13;4978034;28;20566;-89
2022/05/12 13:09:00;;;;;;;;;;;;;;;28.37;nan;99597.38;4969702;28;19977;-87
2022/05/12 13:11:26;;;;;;;;;;;;;;;28.41;nan;99595.94;4970819;28;20242;-87
2022/05/12 13:13:52;;;;;;;;;;;;;;;28.34;nan;99606.75;4968211;28;20701;-87
2022/05/12 13:16:19;;;;;;;;;;;;;;;28.37;nan;99602.78;4969976;28;20072;-86
2022/05/12 13:18:46;;;;;;;;;;;;;;;28.35;nan;99602.16;4984549;28;19976;-87
2022/05/12 13:21:18;;;;;;;;;;;;;;;28.31;nan;99593.69;4971191;28;19968;-86
2022/05/12 13:23:56;;;;;;;;;;;;;;;28.35;nan;99596.78;4971201;28;20340;-87
2022/05/12 13:26:21;;;;;;;;;;;;;;;28.19;nan;99592.66;4975262;28;20643;-87
2022/05/12 13:28:46;;;;;;;;;;;;;;;28.05;nan;99591.06;4997934;28;19984;-86
2022/05/12 13:31:21;;;;;;;;;;;;;;;28.09;nan;99585.03;4982839;28;20002;-86
2022/05/12 13:34:13;;;;;;;;;;;;;;;28.09;nan;99570.69;4972907;28;20010;-87
2022/05/12 13:36:41;;;;;;;;;;;;;;;28.19;nan;99579.16;4969570;28;20883;-86